sensor_id;sensor_type;location;lat;lon;timestamp;temperature;humidity
33328;DHT22;19692;52.998;9.116;2023-08-17T00:00:03;17.20;99.90
33328;DHT22;19692;52.998;9.116;2023-08-17T00:02:30;17.20;99.90
33328;DHT22;19692;52.998;9.116;2023-08-17T00:04:56;17.20;99.90
33328;DHT22;19692;52.998;9.116;2023-08-17T00:07:22;17.20;99.90
33328;DHT22;19692;52.998;9.116;2023-08-17T00:09:47;17.20;99.90
33328;DHT22;19692;52.998;9.116;2023-08-17T00:12:13;17.20;99.90
33328;DHT22;19692;52.998;9.116;2023-08-17T00:14:39;17.20;99.90
33328;DHT22;19692;52.998;9.116;2023-08-17T00:17:05;17.10;99.90
33328;DHT22;19692;52.998;9.116;2023-08-17T00:19:31;17.10;99.90
33328;DHT22;19692;52.998;9.116;2023-08-17T00:21:57;17.10;99.90
33328;DHT22;19692;52.998;9.116;2023-08-17T00:24:22;17.10;99.90
33328;DHT22;19692;52.998;9.116;2023-08-17T00:26:48;17.10;99.90
33328;DHT22;19692;52.998;9.116;2023-08-17T00:29:14;17.10;99.90
33328;DHT22;19692;52.998;9.116;2023-08-17T00:31:41;17.10;99.90
33328;DHT22;19692;52.998;9.116;2023-08-17T00:34:07;17.10;99.90
33328;DHT22;19692;52.998;9.116;2023-08-17T00:36:33;17.20;99.90
33328;DHT22;19692;52.998;9.116;2023-08-17T00:38:58;17.20;99.90
33328;DHT22;19692;52.998;9.116;2023-08-17T00:41:24;17.10;99.90
33328;DHT22;19692;52.998;9.116;2023-08-17T00:43:50;17.10;99.90
33328;DHT22;19692;52.998;9.116;2023-08-17T00:46:16;17.10;99.90
33328;DHT22;19692;52.998;9.116;2023-08-17T00:48:42;17.10;99.90
33328;DHT22;19692;52.998;9.116;2023-08-17T00:51:08;17.10;99.90
33328;DHT22;19692;52.998;9.116;2023-08-17T00:53:34;17.10;99.90
33328;DHT22;19692;52.998;9.116;2023-08-17T00:56:01;17.00;99.90
33328;DHT22;19692;52.998;9.116;2023-08-17T00:58:28;17.00;99.90
33328;DHT22;19692;52.998;9.116;2023-08-17T01:00:54;17.00;99.90
33328;DHT22;19692;52.998;9.116;2023-08-17T01:03:22;17.00;99.90
33328;DHT22;19692;52.998;9.116;2023-08-17T01:05:48;17.00;99.90
33328;DHT22;19692;52.998;9.116;2023-08-17T01:08:14;17.00;99.90
33328;DHT22;19692;52.998;9.116;2023-08-17T01:11:06;17.00;99.90
33328;DHT22;19692;52.998;9.116;2023-08-17T01:13:49;17.00;99.90
33328;DHT22;19692;52.998;9.116;2023-08-17T01:16:42;17.00;99.90
33328;DHT22;19692;52.998;9.116;2023-08-17T01:19:13;17.00;99.90
33328;DHT22;19692;52.998;9.116;2023-08-17T01:21:50;16.90;99.90
33328;DHT22;19692;52.998;9.116;2023-08-17T01:24:16;16.90;99.90
33328;DHT22;19692;52.998;9.116;2023-08-17T01:26:42;16.90;99.90
33328;DHT22;19692;52.998;9.116;2023-08-17T01:29:07;16.90;99.90
33328;DHT22;19692;52.998;9.116;2023-08-17T01:31:43;17.00;99.90
33328;DHT22;19692;52.998;9.116;2023-08-17T01:34:18;17.00;99.90
33328;DHT22;19692;52.998;9.116;2023-08-17T01:36:53;17.00;99.90
33328;DHT22;19692;52.998;9.116;2023-08-17T01:39:27;17.00;99.90
33328;DHT22;19692;52.998;9.116;2023-08-17T01:41:58;17.00;99.90
33328;DHT22;19692;52.998;9.116;2023-08-17T01:44:25;17.00;99.90
33328;DHT22;19692;52.998;9.116;2023-08-17T01:46:53;17.00;99.90
33328;DHT22;19692;52.998;9.116;2023-08-17T01:49:19;17.00;99.90
33328;DHT22;19692;52.998;9.116;2023-08-17T01:51:44;17.00;99.90
33328;DHT22;19692;52.998;9.116;2023-08-17T01:54:10;16.90;99.90
33328;DHT22;19692;52.998;9.116;2023-08-17T01:56:36;17.00;99.90
33328;DHT22;19692;52.998;9.116;2023-08-17T01:59:01;16.90;99.90
33328;DHT22;19692;52.998;9.116;2023-08-17T02:01:27;16.90;99.90
33328;DHT22;19692;52.998;9.116;2023-08-17T02:03:53;16.90;99.90
33328;DHT22;19692;52.998;9.116;2023-08-17T02:06:19;16.90;99.90
33328;DHT22;19692;52.998;9.116;2023-08-17T02:08:45;16.90;99.90
33328;DHT22;19692;52.998;9.116;2023-08-17T02:11:11;16.90;99.90
33328;DHT22;19692;52.998;9.116;2023-08-17T02:13:37;17.00;99.90
33328;DHT22;19692;52.998;9.116;2023-08-17T02:16:04;17.00;99.90
33328;DHT22;19692;52.998;9.116;2023-08-17T02:18:30;17.00;99.90
33328;DHT22;19692;52.998;9.116;2023-08-17T02:20:57;17.00;99.90
33328;DHT22;19692;52.998;9.116;2023-08-17T02:23:23;17.00;99.90
33328;DHT22;19692;52.998;9.116;2023-08-17T02:25:48;16.90;99.90
33328;DHT22;19692;52.998;9.116;2023-08-17T02:28:14;16.90;99.90
33328;DHT22;19692;52.998;9.116;2023-08-17T02:30:40;16.90;99.90
33328;DHT22;19692;52.998;9.116;2023-08-17T02:33:06;17.00;99.90
33328;DHT22;19692;52.998;9.116;2023-08-17T02:35:33;17.00;99.90
33328;DHT22;19692;52.998;9.116;2023-08-17T02:37:58;17.00;99.90
33328;DHT22;19692;52.998;9.116;2023-08-17T02:40:24;17.10;99.90
33328;DHT22;19692;52.998;9.116;2023-08-17T02:42:50;17.00;99.90
33328;DHT22;19692;52.998;9.116;2023-08-17T02:45:16;17.10;99.90
33328;DHT22;19692;52.998;9.116;2023-08-17T02:47:41;17.10;99.90
33328;DHT22;19692;52.998;9.116;2023-08-17T02:50:07;17.20;99.90
33328;DHT22;19692;52.998;9.116;2023-08-17T02:52:34;17.10;99.90
33328;DHT22;19692;52.998;9.116;2023-08-17T02:54:59;17.10;99.90
33328;DHT22;19692;52.998;9.116;2023-08-17T02:57:25;17.10;99.90
33328;DHT22;19692;52.998;9.116;2023-08-17T02:59:51;17.20;99.90
33328;DHT22;19692;52.998;9.116;2023-08-17T03:02:16;17.20;99.90
33328;DHT22;19692;52.998;9.116;2023-08-17T03:04:42;17.10;99.90
33328;DHT22;19692;52.998;9.116;2023-08-17T03:07:08;17.10;99.90
33328;DHT22;19692;52.998;9.116;2023-08-17T03:09:34;17.10;99.90
33328;DHT22;19692;52.998;9.116;2023-08-17T03:11:59;17.10;99.90
33328;DHT22;19692;52.998;9.116;2023-08-17T03:14:25;17.20;99.90
33328;DHT22;19692;52.998;9.116;2023-08-17T03:16:51;17.10;99.90
33328;DHT22;19692;52.998;9.116;2023-08-17T03:19:17;17.00;99.90
33328;DHT22;19692;52.998;9.116;2023-08-17T03:21:43;17.00;99.90
33328;DHT22;19692;52.998;9.116;2023-08-17T03:24:08;16.90;99.90
33328;DHT22;19692;52.998;9.116;2023-08-17T03:26:34;16.90;99.90
33328;DHT22;19692;52.998;9.116;2023-08-17T03:29:00;16.90;99.90
33328;DHT22;19692;52.998;9.116;2023-08-17T03:31:26;16.80;99.90
33328;DHT22;19692;52.998;9.116;2023-08-17T03:33:51;16.80;99.90
33328;DHT22;19692;52.998;9.116;2023-08-17T03:36:17;16.80;99.90
33328;DHT22;19692;52.998;9.116;2023-08-17T03:38:43;16.90;99.90
33328;DHT22;19692;52.998;9.116;2023-08-17T03:41:09;16.80;99.90
33328;DHT22;19692;52.998;9.116;2023-08-17T03:43:35;16.80;99.90
33328;DHT22;19692;52.998;9.116;2023-08-17T03:46:03;16.80;99.90
33328;DHT22;19692;52.998;9.116;2023-08-17T03:48:29;16.80;99.90
33328;DHT22;19692;52.998;9.116;2023-08-17T03:50:55;16.70;99.90
33328;DHT22;19692;52.998;9.116;2023-08-17T03:53:21;16.70;99.90
33328;DHT22;19692;52.998;9.116;2023-08-17T03:55:48;16.70;99.90
33328;DHT22;19692;52.998;9.116;2023-08-17T03:58:14;16.70;99.90
33328;DHT22;19692;52.998;9.116;2023-08-17T04:00:40;16.70;99.90
33328;DHT22;19692;52.998;9.116;2023-08-17T04:03:06;16.70;99.90
33328;DHT22;19692;52.998;9.116;2023-08-17T04:05:32;16.70;99.90
33328;DHT22;19692;52.998;9.116;2023-08-17T04:08:00;16.70;99.90
33328;DHT22;19692;52.998;9.116;2023-08-17T04:10:29;16.60;99.90
33328;DHT22;19692;52.998;9.116;2023-08-17T04:12:56;16.70;99.90
33328;DHT22;19692;52.998;9.116;2023-08-17T04:15:22;16.70;99.90
33328;DHT22;19692;52.998;9.116;2023-08-17T04:17:48;16.70;99.90
33328;DHT22;19692;52.998;9.116;2023-08-17T04:20:14;16.70;99.90
33328;DHT22;19692;52.998;9.116;2023-08-17T04:22:39;16.70;99.90
33328;DHT22;19692;52.998;9.116;2023-08-17T04:25:05;16.70;99.90
33328;DHT22;19692;52.998;9.116;2023-08-17T04:27:33;16.70;99.90
33328;DHT22;19692;52.998;9.116;2023-08-17T04:29:59;16.70;99.90
33328;DHT22;19692;52.998;9.116;2023-08-17T04:32:25;16.60;99.90
33328;DHT22;19692;52.998;9.116;2023-08-17T04:34:51;16.60;99.90
33328;DHT22;19692;52.998;9.116;2023-08-17T04:37:17;16.60;99.90
33328;DHT22;19692;52.998;9.116;2023-08-17T04:39:43;16.60;99.90
33328;DHT22;19692;52.998;9.116;2023-08-17T04:42:09;16.60;99.90
33328;DHT22;19692;52.998;9.116;2023-08-17T04:44:35;16.60;99.90
33328;DHT22;19692;52.998;9.116;2023-08-17T04:47:01;16.60;99.90
33328;DHT22;19692;52.998;9.116;2023-08-17T04:49:27;16.50;99.90
33328;DHT22;19692;52.998;9.116;2023-08-17T04:51:53;16.50;99.90
33328;DHT22;19692;52.998;9.116;2023-08-17T04:54:19;16.50;99.90
33328;DHT22;19692;52.998;9.116;2023-08-17T04:56:45;16.40;99.90
33328;DHT22;19692;52.998;9.116;2023-08-17T04:59:11;16.40;99.90
33328;DHT22;19692;52.998;9.116;2023-08-17T05:01:36;16.40;99.90
33328;DHT22;19692;52.998;9.116;2023-08-17T05:04:03;16.40;99.90
33328;DHT22;19692;52.998;9.116;2023-08-17T05:06:29;16.40;99.90
33328;DHT22;19692;52.998;9.116;2023-08-17T05:08:56;16.40;99.90
33328;DHT22;19692;52.998;9.116;2023-08-17T05:11:23;16.40;99.90
33328;DHT22;19692;52.998;9.116;2023-08-17T05:13:49;16.40;99.90
33328;DHT22;19692;52.998;9.116;2023-08-17T05:16:15;16.40;99.90
33328;DHT22;19692;52.998;9.116;2023-08-17T05:18:40;16.40;99.90
33328;DHT22;19692;52.998;9.116;2023-08-17T05:21:06;16.30;99.90
33328;DHT22;19692;52.998;9.116;2023-08-17T05:23:32;16.40;99.90
33328;DHT22;19692;52.998;9.116;2023-08-17T05:25:58;16.30;99.90
33328;DHT22;19692;52.998;9.116;2023-08-17T05:28:24;16.30;99.90
33328;DHT22;19692;52.998;9.116;2023-08-17T05:30:49;16.30;99.90
33328;DHT22;19692;52.998;9.116;2023-08-17T05:33:15;16.30;99.90
33328;DHT22;19692;52.998;9.116;2023-08-17T05:35:41;16.30;99.90
33328;DHT22;19692;52.998;9.116;2023-08-17T05:38:08;16.30;99.90
33328;DHT22;19692;52.998;9.116;2023-08-17T05:40:35;16.30;99.90
33328;DHT22;19692;52.998;9.116;2023-08-17T05:43:01;16.30;99.90
33328;DHT22;19692;52.998;9.116;2023-08-17T05:45:27;16.30;99.90
33328;DHT22;19692;52.998;9.116;2023-08-17T05:47:53;16.30;99.90
33328;DHT22;19692;52.998;9.116;2023-08-17T05:50:18;16.30;99.90
33328;DHT22;19692;52.998;9.116;2023-08-17T05:52:44;16.30;99.90
33328;DHT22;19692;52.998;9.116;2023-08-17T05:55:10;16.30;99.90
33328;DHT22;19692;52.998;9.116;2023-08-17T05:57:36;16.30;99.90
33328;DHT22;19692;52.998;9.116;2023-08-17T06:00:02;16.30;99.90
33328;DHT22;19692;52.998;9.116;2023-08-17T06:02:28;16.30;99.90
33328;DHT22;19692;52.998;9.116;2023-08-17T06:04:54;16.40;99.90
33328;DHT22;19692;52.998;9.116;2023-08-17T06:07:19;16.40;99.90
33328;DHT22;19692;52.998;9.116;2023-08-17T06:09:45;16.30;99.90
33328;DHT22;19692;52.998;9.116;2023-08-17T06:12:11;16.30;99.90
33328;DHT22;19692;52.998;9.116;2023-08-17T06:14:37;16.30;99.90
33328;DHT22;19692;52.998;9.116;2023-08-17T06:17:03;16.30;99.90
33328;DHT22;19692;52.998;9.116;2023-08-17T06:19:28;16.30;99.90
33328;DHT22;19692;52.998;9.116;2023-08-17T06:21:54;16.40;99.90
33328;DHT22;19692;52.998;9.116;2023-08-17T06:24:20;16.40;99.90
33328;DHT22;19692;52.998;9.116;2023-08-17T06:26:46;16.40;99.90
33328;DHT22;19692;52.998;9.116;2023-08-17T06:29:12;16.40;99.90
33328;DHT22;19692;52.998;9.116;2023-08-17T06:31:37;16.40;99.90
33328;DHT22;19692;52.998;9.116;2023-08-17T06:34:03;16.50;99.90
33328;DHT22;19692;52.998;9.116;2023-08-17T06:36:31;16.50;99.90
33328;DHT22;19692;52.998;9.116;2023-08-17T06:38:58;16.50;99.90
33328;DHT22;19692;52.998;9.116;2023-08-17T06:41:24;16.50;99.90
33328;DHT22;19692;52.998;9.116;2023-08-17T06:43:50;16.50;99.90
33328;DHT22;19692;52.998;9.116;2023-08-17T06:46:16;16.60;99.90
33328;DHT22;19692;52.998;9.116;2023-08-17T06:48:43;16.70;99.90
33328;DHT22;19692;52.998;9.116;2023-08-17T06:51:09;16.70;99.90
33328;DHT22;19692;52.998;9.116;2023-08-17T06:53:35;16.70;99.90
33328;DHT22;19692;52.998;9.116;2023-08-17T06:56:01;16.70;99.90
33328;DHT22;19692;52.998;9.116;2023-08-17T06:58:26;16.70;99.90
33328;DHT22;19692;52.998;9.116;2023-08-17T07:00:52;16.70;99.90
33328;DHT22;19692;52.998;9.116;2023-08-17T07:03:18;16.70;99.90
33328;DHT22;19692;52.998;9.116;2023-08-17T07:05:44;16.70;99.90
33328;DHT22;19692;52.998;9.116;2023-08-17T07:08:10;16.60;99.90
33328;DHT22;19692;52.998;9.116;2023-08-17T07:10:36;16.70;99.90
33328;DHT22;19692;52.998;9.116;2023-08-17T07:13:02;16.70;99.90
33328;DHT22;19692;52.998;9.116;2023-08-17T07:15:32;16.70;99.90
33328;DHT22;19692;52.998;9.116;2023-08-17T07:17:58;16.80;99.90
33328;DHT22;19692;52.998;9.116;2023-08-17T07:20:23;16.80;99.90
33328;DHT22;19692;52.998;9.116;2023-08-17T07:22:49;16.90;99.90
33328;DHT22;19692;52.998;9.116;2023-08-17T07:25:15;16.90;99.90
33328;DHT22;19692;52.998;9.116;2023-08-17T07:27:41;16.90;99.90
33328;DHT22;19692;52.998;9.116;2023-08-17T07:30:08;16.90;99.90
33328;DHT22;19692;52.998;9.116;2023-08-17T07:32:36;17.00;99.90
33328;DHT22;19692;52.998;9.116;2023-08-17T07:35:02;17.00;99.90
33328;DHT22;19692;52.998;9.116;2023-08-17T07:37:28;16.90;99.90
33328;DHT22;19692;52.998;9.116;2023-08-17T07:39:58;17.00;99.90
33328;DHT22;19692;52.998;9.116;2023-08-17T07:42:24;17.00;99.90
33328;DHT22;19692;52.998;9.116;2023-08-17T07:44:50;17.00;99.90
33328;DHT22;19692;52.998;9.116;2023-08-17T07:47:16;17.00;99.90
33328;DHT22;19692;52.998;9.116;2023-08-17T07:49:42;17.00;99.90
33328;DHT22;19692;52.998;9.116;2023-08-17T07:52:07;17.00;99.90
33328;DHT22;19692;52.998;9.116;2023-08-17T07:54:33;17.00;99.90
33328;DHT22;19692;52.998;9.116;2023-08-17T07:56:59;17.00;99.90
33328;DHT22;19692;52.998;9.116;2023-08-17T07:59:25;17.00;99.90
33328;DHT22;19692;52.998;9.116;2023-08-17T08:01:51;17.00;99.90
33328;DHT22;19692;52.998;9.116;2023-08-17T08:04:16;17.00;99.90
33328;DHT22;19692;52.998;9.116;2023-08-17T08:06:42;17.00;99.90
33328;DHT22;19692;52.998;9.116;2023-08-17T08:09:11;17.00;99.90
33328;DHT22;19692;52.998;9.116;2023-08-17T08:11:37;17.00;99.90
33328;DHT22;19692;52.998;9.116;2023-08-17T08:14:03;17.00;99.90
33328;DHT22;19692;52.998;9.116;2023-08-17T08:16:29;16.90;99.90
33328;DHT22;19692;52.998;9.116;2023-08-17T08:18:56;17.00;99.90
33328;DHT22;19692;52.998;9.116;2023-08-17T08:21:21;17.00;99.90
33328;DHT22;19692;52.998;9.116;2023-08-17T08:23:47;17.00;99.90
33328;DHT22;19692;52.998;9.116;2023-08-17T08:26:13;17.00;99.90
33328;DHT22;19692;52.998;9.116;2023-08-17T08:28:39;17.00;99.90
33328;DHT22;19692;52.998;9.116;2023-08-17T08:31:05;16.90;99.90
33328;DHT22;19692;52.998;9.116;2023-08-17T08:33:31;16.90;99.90
33328;DHT22;19692;52.998;9.116;2023-08-17T08:35:57;16.90;99.90
33328;DHT22;19692;52.998;9.116;2023-08-17T08:38:23;16.90;99.90
33328;DHT22;19692;52.998;9.116;2023-08-17T08:40:49;16.80;99.90
33328;DHT22;19692;52.998;9.116;2023-08-17T08:43:16;16.70;99.90
33328;DHT22;19692;52.998;9.116;2023-08-17T08:45:42;16.70;99.90
33328;DHT22;19692;52.998;9.116;2023-08-17T08:48:11;16.60;99.90
33328;DHT22;19692;52.998;9.116;2023-08-17T08:50:39;16.70;99.90
33328;DHT22;19692;52.998;9.116;2023-08-17T08:53:11;16.70;99.90
33328;DHT22;19692;52.998;9.116;2023-08-17T08:55:45;16.70;99.90
33328;DHT22;19692;52.998;9.116;2023-08-17T08:58:15;16.60;99.90
33328;DHT22;19692;52.998;9.116;2023-08-17T09:00:45;16.60;99.90
33328;DHT22;19692;52.998;9.116;2023-08-17T09:03:11;16.70;99.90
33328;DHT22;19692;52.998;9.116;2023-08-17T09:05:38;16.60;99.90
33328;DHT22;19692;52.998;9.116;2023-08-17T09:08:08;16.70;99.90
33328;DHT22;19692;52.998;9.116;2023-08-17T09:10:35;16.70;99.90
33328;DHT22;19692;52.998;9.116;2023-08-17T09:13:01;16.70;99.90
33328;DHT22;19692;52.998;9.116;2023-08-17T09:15:26;16.80;99.90
33328;DHT22;19692;52.998;9.116;2023-08-17T09:17:52;16.90;99.90
33328;DHT22;19692;52.998;9.116;2023-08-17T09:20:37;17.00;99.90
33328;DHT22;19692;52.998;9.116;2023-08-17T09:23:06;17.10;99.90
33328;DHT22;19692;52.998;9.116;2023-08-17T09:25:38;17.10;99.90
33328;DHT22;19692;52.998;9.116;2023-08-17T09:28:11;17.20;99.90
33328;DHT22;19692;52.998;9.116;2023-08-17T09:30:59;17.20;99.90
33328;DHT22;19692;52.998;9.116;2023-08-17T09:33:28;17.30;99.90
33328;DHT22;19692;52.998;9.116;2023-08-17T09:35:56;17.30;99.90
33328;DHT22;19692;52.998;9.116;2023-08-17T09:38:23;17.50;99.90
33328;DHT22;19692;52.998;9.116;2023-08-17T09:40:49;17.60;99.90
33328;DHT22;19692;52.998;9.116;2023-08-17T09:43:15;17.50;99.90
33328;DHT22;19692;52.998;9.116;2023-08-17T09:45:44;17.50;99.90
33328;DHT22;19692;52.998;9.116;2023-08-17T09:48:14;17.50;99.90
33328;DHT22;19692;52.998;9.116;2023-08-17T09:50:46;17.40;99.90
33328;DHT22;19692;52.998;9.116;2023-08-17T09:53:18;17.30;99.90
33328;DHT22;19692;52.998;9.116;2023-08-17T09:55:45;17.40;99.90
33328;DHT22;19692;52.998;9.116;2023-08-17T09:58:12;17.20;99.90
33328;DHT22;19692;52.998;9.116;2023-08-17T10:00:46;17.20;99.90
33328;DHT22;19692;52.998;9.116;2023-08-17T10:03:15;17.20;99.90
33328;DHT22;19692;52.998;9.116;2023-08-17T10:05:43;17.20;99.90
33328;DHT22;19692;52.998;9.116;2023-08-17T10:08:12;17.20;99.90
33328;DHT22;19692;52.998;9.116;2023-08-17T10:10:45;17.20;99.90
33328;DHT22;19692;52.998;9.116;2023-08-17T10:19:21;17.20;99.90
33328;DHT22;19692;52.998;9.116;2023-08-17T10:22:00;17.10;99.90
33328;DHT22;19692;52.998;9.116;2023-08-17T10:24:32;17.10;99.90
33328;DHT22;19692;52.998;9.116;2023-08-17T10:27:02;17.10;99.90
33328;DHT22;19692;52.998;9.116;2023-08-17T10:29:29;17.20;99.90
33328;DHT22;19692;52.998;9.116;2023-08-17T10:31:57;17.30;99.90
33328;DHT22;19692;52.998;9.116;2023-08-17T10:34:23;17.30;99.90
33328;DHT22;19692;52.998;9.116;2023-08-17T10:36:49;17.40;99.90
33328;DHT22;19692;52.998;9.116;2023-08-17T10:41:50;17.50;99.90
33328;DHT22;19692;52.998;9.116;2023-08-17T10:44:45;17.50;99.90
33328;DHT22;19692;52.998;9.116;2023-08-17T10:47:38;17.60;99.90
33328;DHT22;19692;52.998;9.116;2023-08-17T10:50:06;17.60;99.90
33328;DHT22;19692;52.998;9.116;2023-08-17T10:52:48;17.60;99.90
33328;DHT22;19692;52.998;9.116;2023-08-17T10:55:15;17.70;99.90
33328;DHT22;19692;52.998;9.116;2023-08-17T10:57:44;17.80;99.90
33328;DHT22;19692;52.998;9.116;2023-08-17T11:00:23;17.80;99.90
33328;DHT22;19692;52.998;9.116;2023-08-17T11:02:56;17.80;99.90
33328;DHT22;19692;52.998;9.116;2023-08-17T11:05:46;17.70;99.90
33328;DHT22;19692;52.998;9.116;2023-08-17T11:11:03;17.70;99.90
33328;DHT22;19692;52.998;9.116;2023-08-17T11:13:34;17.70;99.90
33328;DHT22;19692;52.998;9.116;2023-08-17T11:16:02;17.60;99.90
33328;DHT22;19692;52.998;9.116;2023-08-17T11:18:29;17.70;99.90
33328;DHT22;19692;52.998;9.116;2023-08-17T11:20:56;17.70;99.90
33328;DHT22;19692;52.998;9.116;2023-08-17T11:23:29;17.60;99.90
33328;DHT22;19692;52.998;9.116;2023-08-17T11:25:55;17.50;99.90
33328;DHT22;19692;52.998;9.116;2023-08-17T11:28:23;17.50;99.90
33328;DHT22;19692;52.998;9.116;2023-08-17T11:30:59;17.50;99.90
33328;DHT22;19692;52.998;9.116;2023-08-17T11:33:26;17.60;99.90
33328;DHT22;19692;52.998;9.116;2023-08-17T11:35:58;17.60;99.90
33328;DHT22;19692;52.998;9.116;2023-08-17T11:38:25;17.60;99.90
33328;DHT22;19692;52.998;9.116;2023-08-17T11:40:52;17.50;99.90
33328;DHT22;19692;52.998;9.116;2023-08-17T11:43:18;17.50;99.90
33328;DHT22;19692;52.998;9.116;2023-08-17T11:45:46;17.50;99.90
33328;DHT22;19692;52.998;9.116;2023-08-17T11:48:12;17.60;99.90
33328;DHT22;19692;52.998;9.116;2023-08-17T11:50:38;17.60;99.90
33328;DHT22;19692;52.998;9.116;2023-08-17T11:53:05;17.70;99.90
33328;DHT22;19692;52.998;9.116;2023-08-17T11:55:32;17.70;99.90
33328;DHT22;19692;52.998;9.116;2023-08-17T11:57:58;17.70;99.90
33328;DHT22;19692;52.998;9.116;2023-08-17T12:00:23;17.80;99.90
33328;DHT22;19692;52.998;9.116;2023-08-17T12:02:51;17.80;99.90
33328;DHT22;19692;52.998;9.116;2023-08-17T12:05:25;17.90;99.90
33328;DHT22;19692;52.998;9.116;2023-08-17T12:07:53;18.00;99.90
33328;DHT22;19692;52.998;9.116;2023-08-17T12:10:19;18.20;99.90
33328;DHT22;19692;52.998;9.116;2023-08-17T12:12:48;18.30;99.90
33328;DHT22;19692;52.998;9.116;2023-08-17T12:15:16;18.40;99.90
33328;DHT22;19692;52.998;9.116;2023-08-17T12:17:49;18.40;99.90
33328;DHT22;19692;52.998;9.116;2023-08-17T12:20:19;18.40;99.90
33328;DHT22;19692;52.998;9.116;2023-08-17T12:22:48;18.40;99.90
33328;DHT22;19692;52.998;9.116;2023-08-17T12:25:15;18.30;99.90
33328;DHT22;19692;52.998;9.116;2023-08-17T12:27:40;18.30;99.90
33328;DHT22;19692;52.998;9.116;2023-08-17T12:30:28;18.40;99.90
33328;DHT22;19692;52.998;9.116;2023-08-17T12:32:57;18.40;99.90
33328;DHT22;19692;52.998;9.116;2023-08-17T12:35:22;18.20;99.90
33328;DHT22;19692;52.998;9.116;2023-08-17T12:37:50;18.30;99.90
33328;DHT22;19692;52.998;9.116;2023-08-17T12:40:17;18.20;99.90
33328;DHT22;19692;52.998;9.116;2023-08-17T12:42:42;18.20;99.90
33328;DHT22;19692;52.998;9.116;2023-08-17T12:45:09;18.10;99.90
33328;DHT22;19692;52.998;9.116;2023-08-17T12:47:34;18.00;99.90
33328;DHT22;19692;52.998;9.116;2023-08-17T12:50:00;17.90;99.90
33328;DHT22;19692;52.998;9.116;2023-08-17T12:52:27;17.90;99.90
33328;DHT22;19692;52.998;9.116;2023-08-17T12:54:53;17.80;99.90
33328;DHT22;19692;52.998;9.116;2023-08-17T12:57:19;17.80;99.90
33328;DHT22;19692;52.998;9.116;2023-08-17T12:59:45;17.80;99.90
33328;DHT22;19692;52.998;9.116;2023-08-17T13:02:14;17.80;99.90
33328;DHT22;19692;52.998;9.116;2023-08-17T13:04:41;17.70;99.90
33328;DHT22;19692;52.998;9.116;2023-08-17T13:07:07;17.70;99.90
33328;DHT22;19692;52.998;9.116;2023-08-17T13:09:33;17.50;99.90
33328;DHT22;19692;52.998;9.116;2023-08-17T13:11:59;17.40;99.90
33328;DHT22;19692;52.998;9.116;2023-08-17T13:14:25;17.30;99.90
33328;DHT22;19692;52.998;9.116;2023-08-17T13:16:51;17.20;99.90
33328;DHT22;19692;52.998;9.116;2023-08-17T13:19:18;17.20;99.90
33328;DHT22;19692;52.998;9.116;2023-08-17T13:21:44;17.20;99.90
33328;DHT22;19692;52.998;9.116;2023-08-17T13:24:10;17.30;99.90
33328;DHT22;19692;52.998;9.116;2023-08-17T13:26:36;17.40;99.90
33328;DHT22;19692;52.998;9.116;2023-08-17T13:29:05;17.30;99.90
33328;DHT22;19692;52.998;9.116;2023-08-17T13:31:40;17.30;99.90
33328;DHT22;19692;52.998;9.116;2023-08-17T13:34:06;17.30;99.90
33328;DHT22;19692;52.998;9.116;2023-08-17T13:36:31;17.30;99.90
33328;DHT22;19692;52.998;9.116;2023-08-17T13:38:57;17.10;99.90
33328;DHT22;19692;52.998;9.116;2023-08-17T13:41:23;17.10;99.90
33328;DHT22;19692;52.998;9.116;2023-08-17T13:43:50;17.00;99.90
33328;DHT22;19692;52.998;9.116;2023-08-17T13:46:16;17.00;99.90
33328;DHT22;19692;52.998;9.116;2023-08-17T13:48:42;17.10;99.90
33328;DHT22;19692;52.998;9.116;2023-08-17T13:51:07;17.20;99.90
33328;DHT22;19692;52.998;9.116;2023-08-17T13:53:36;17.20;99.90
33328;DHT22;19692;52.998;9.116;2023-08-17T13:56:01;17.10;99.90
33328;DHT22;19692;52.998;9.116;2023-08-17T13:58:27;17.10;99.90
33328;DHT22;19692;52.998;9.116;2023-08-17T14:00:53;17.10;99.90
33328;DHT22;19692;52.998;9.116;2023-08-17T14:03:19;17.00;99.90
33328;DHT22;19692;52.998;9.116;2023-08-17T14:05:45;16.90;99.90
33328;DHT22;19692;52.998;9.116;2023-08-17T14:08:10;16.90;99.90
33328;DHT22;19692;52.998;9.116;2023-08-17T14:10:37;16.80;99.90
33328;DHT22;19692;52.998;9.116;2023-08-17T14:13:02;16.90;99.90
33328;DHT22;19692;52.998;9.116;2023-08-17T14:15:29;16.80;99.90
33328;DHT22;19692;52.998;9.116;2023-08-17T14:17:55;16.80;99.90
33328;DHT22;19692;52.998;9.116;2023-08-17T14:20:21;16.80;99.90
33328;DHT22;19692;52.998;9.116;2023-08-17T14:22:47;16.90;99.90
33328;DHT22;19692;52.998;9.116;2023-08-17T14:25:13;17.00;99.90
33328;DHT22;19692;52.998;9.116;2023-08-17T14:27:39;17.10;99.90
33328;DHT22;19692;52.998;9.116;2023-08-17T14:30:05;17.20;99.90
33328;DHT22;19692;52.998;9.116;2023-08-17T14:32:31;17.20;99.90
33328;DHT22;19692;52.998;9.116;2023-08-17T14:34:57;17.20;99.90
33328;DHT22;19692;52.998;9.116;2023-08-17T14:37:23;17.10;99.90
33328;DHT22;19692;52.998;9.116;2023-08-17T14:39:49;17.10;99.90
33328;DHT22;19692;52.998;9.116;2023-08-17T14:42:17;17.00;99.90
33328;DHT22;19692;52.998;9.116;2023-08-17T14:44:46;17.10;99.90
33328;DHT22;19692;52.998;9.116;2023-08-17T14:47:19;17.20;99.90
33328;DHT22;19692;52.998;9.116;2023-08-17T14:49:44;17.20;99.90
33328;DHT22;19692;52.998;9.116;2023-08-17T14:52:16;17.10;99.90
33328;DHT22;19692;52.998;9.116;2023-08-17T14:54:42;17.20;99.90
33328;DHT22;19692;52.998;9.116;2023-08-17T14:57:07;17.20;99.90
33328;DHT22;19692;52.998;9.116;2023-08-17T14:59:33;17.10;99.90
33328;DHT22;19692;52.998;9.116;2023-08-17T15:01:59;17.10;99.90
33328;DHT22;19692;52.998;9.116;2023-08-17T15:04:25;17.00;99.90
33328;DHT22;19692;52.998;9.116;2023-08-17T15:06:51;17.00;99.90
33328;DHT22;19692;52.998;9.116;2023-08-17T15:09:17;17.00;99.90
33328;DHT22;19692;52.998;9.116;2023-08-17T15:11:53;17.10;99.90
33328;DHT22;19692;52.998;9.116;2023-08-17T15:14:19;17.10;99.90
33328;DHT22;19692;52.998;9.116;2023-08-17T15:16:48;17.10;99.90
33328;DHT22;19692;52.998;9.116;2023-08-17T15:19:14;17.30;99.90
33328;DHT22;19692;52.998;9.116;2023-08-17T15:21:40;17.30;99.90
33328;DHT22;19692;52.998;9.116;2023-08-17T15:24:15;17.40;99.90
33328;DHT22;19692;52.998;9.116;2023-08-17T15:26:47;17.40;99.90
33328;DHT22;19692;52.998;9.116;2023-08-17T15:29:13;17.40;99.90
33328;DHT22;19692;52.998;9.116;2023-08-17T15:31:38;17.40;99.90
33328;DHT22;19692;52.998;9.116;2023-08-17T15:34:04;17.50;99.90
33328;DHT22;19692;52.998;9.116;2023-08-17T15:36:30;17.40;99.90
33328;DHT22;19692;52.998;9.116;2023-08-17T15:38:56;17.30;99.90
33328;DHT22;19692;52.998;9.116;2023-08-17T15:41:21;17.40;99.90